Flight Track Log - Related Links

Times and Time Zones

All times are in EDT time to prevent confusion due to time zone crossing. See the DAL3688 flight status page for this flight to view local times or setup timezone preferences in your user account.

Time Position Orientation Groundspeed Altitude Reporting Facility
EDT Latitude Longitude Course Direction KTS MPH feet Rate Location/Type
Fri 12:57:47 PM 40.1158 -76.7589 247° West 226 260 5,000  Level New York Center
Fri 12:58:00 PM 40.2953 -77.0525 294° West  Level FlightAware Approximate
Fri 12:58:48 PM 40.1056 -76.8367 260° West 231 266 7,700  Level New York Center
Fri 12:59:00 PM 40.2641 -77.1565 242° Southwest  Level FlightAware Approximate
Fri 12:59:46 PM 40.0975 -76.9119 262° West 236 272 9,700  Level New York Center
Fri 01:00:00 PM 40.2224 -77.2597 241° Southwest  Level FlightAware Approximate
Fri 01:00:46 PM 40.0858 -77.0142 262° West 250 288 11,300  Level New York Center
Fri 01:01:00 PM 40.1797 -77.3622 241° Southwest  Level FlightAware Approximate
Fri 01:01:47 PM 40.0747 -77.1053 261° West 283 326 12,400  Level New York Center
Fri 01:02:00 PM 40.1341 -77.4812 247° West  Level FlightAware Approximate
Fri 01:02:47 PM 40.0600 -77.2261 261° West 309 356 14,100  Level New York Center
Fri 01:03:47 PM 40.0478 -77.3308 261° West 316 364 15,500 1,488 Climbing New York Center
Fri 01:04:48 PM 40.0325 -77.4569 261° West 321 369 17,100 1,488 Climbing New York Center
Fri 01:05:48 PM 40.0264 -77.5647 266° West 331 381 18,500 1,395 Climbing New York Center
Fri 01:06:57 PM 40.0269 -77.7225 270° West 326 375 20,100 1,302 Climbing Cleveland Center
Fri 01:07:57 PM 40.0258 -77.8447 269° West 337 388 21,300 1,160 Climbing Cleveland Center
Fri 01:08:56 PM 40.0247 -77.9694 269° West 343 395 22,400 950 Climbing Cleveland Center
Fri 01:09:57 PM 40.0253 -78.0942 270° West 348 400 23,200 750 Climbing Cleveland Center
Fri 01:10:56 PM 40.0239 -78.2189 269° West 348 400 23,900 555 Climbing Cleveland Center
Fri 01:11:56 PM 40.0450 -78.3347 283° West 348 400 24,300 446 Climbing Cleveland Center
Fri 01:12:57 PM 40.0808 -78.4611 290° West 358 412 24,800 496 Climbing Cleveland Center
Fri 01:13:57 PM 40.1164 -78.5903 290° West 364 419 25,300 504 Climbing Cleveland Center
Fri 01:14:56 PM 40.1519 -78.7225 289° West 375 432 25,800 555 Climbing Cleveland Center
Fri 01:15:56 PM 40.1853 -78.8547 288° West 386 444 26,400 545 Climbing Cleveland Center
Fri 01:16:57 PM 40.2250 -78.9897 291° West 386 444 26,900 500 Climbing Cleveland Center
Fri 01:17:56 PM 40.2600 -79.1222 289° West 386 444 27,400 504 Climbing Cleveland Center
Fri 01:18:56 PM 40.2931 -79.2547 288° West 386 444 27,900 298 Climbing Cleveland Center
Fri 01:19:57 PM 40.3278 -79.3875 289° West 386 444 28,000 100 Climbing Cleveland Center
Fri 01:20:56 PM 40.3644 -79.5203 290° West 386 444 28,100 353 Climbing Cleveland Center
Fri 01:21:56 PM 40.3992 -79.6561 289° West 386 444 28,700 545 Climbing Cleveland Center
Fri 01:22:57 PM 40.4333 -79.7894 289° West 386 444 29,200 496 Climbing Cleveland Center
Fri 01:23:57 PM 40.4656 -79.9200 288° West 386 444 29,700 400 Climbing Cleveland Center
Fri 01:24:57 PM 40.4994 -80.0481 289° West 381 438 30,000 151 Climbing Cleveland Center
Fri 01:25:56 PM 40.5314 -80.1817 288° West 381 438 30,000  Level Cleveland Center
Fri 01:26:56 PM 40.5650 -80.3181 288° West 387 445 30,000  Level Cleveland Center
Fri 01:27:57 PM 40.6050 -80.4711 289° West 397 457 30,000  Level Cleveland Center
Fri 01:28:56 PM 40.6508 -80.6078 294° West 404 465 30,000  Level Cleveland Center
Fri 01:29:56 PM 40.7175 -80.7392 304° West 426 490 30,000 -545 Level Cleveland Center
Fri 01:30:57 PM 40.7922 -80.8792 305° West 448 516 28,900 -992 Descending Cleveland Center
Fri 01:31:57 PM 40.8606 -81.0169 303° West 458 527 28,000 -450 Descending Cleveland Center
Fri 01:32:57 PM 40.9308 -81.1575 304° West 458 527 28,000  Level Cleveland Center
Fri 01:33:56 PM 41.0008 -81.2983 303° West 458 527 28,000  Level Cleveland Center
Fri 01:34:56 PM 41.0625 -81.4203 304° West 458 527 28,000  Level Cleveland Center
Fri 01:35:56 PM 41.1303 -81.5561 304° West 453 521 28,000  Level Cleveland Center
Fri 01:36:57 PM 41.1958 -81.6925 303° West 453 521 28,000 -550 Level Cleveland Center
Fri 01:37:56 PM 41.2714 -81.8456 303° West 453 521 26,900 -1,050 Descending Cleveland Center
Fri 01:38:57 PM 41.3364 -81.9769 303° West 447 514 25,900 -1,250 Descending Cleveland Center
Fri 01:39:56 PM 41.4036 -82.1139 303° West 440 506 24,400 -1,765 Descending Cleveland Center
Fri 01:40:56 PM 41.4664 -82.2403 304° West 434 499 22,400 -2,033 Descending Cleveland Center
Fri 01:41:57 PM 41.5250 -82.3608 303° West 411 473 20,300 -1,884 Descending Cleveland Center
Fri 01:42:57 PM 41.5756 -82.4650 303° West 386 444 18,600 -2,122 Descending Cleveland Center
Fri 01:43:19 PM 41.5997 -82.5131 304° West 351 404 17,400 -2,400 Descending Cleveland Center
Fri 01:43:57 PM 41.6278 -82.5750 301° West 363 418 16,200 -2,400 Descending Cleveland Center
Fri 01:44:44 PM 41.6761 -82.6764 303° West 354 407 14,000 -2,158 Descending Cleveland Center
Fri 01:45:51 PM 41.7364 -82.7925 305° West 357 411 12,100 -938 Descending Cleveland Center
Fri 01:46:52 PM 41.8117 -82.8844 318° Northwest 360 414 12,000  Descending Cleveland Center
Fri 01:47:53 PM 41.8911 -82.9792 318° Northwest 363 418 12,100 49 Climbing Cleveland Center
Fri 01:48:54 PM 41.9664 -83.0686 319° Northwest 364 419 12,100 -48 Level Cleveland Center
Fri 01:49:57 PM 42.0333 -83.1522 317° Northwest 361 415 12,000 -49 Descending Cleveland Center
Fri 01:50:57 PM 42.0983 -83.2222 321° Northwest 311 358 12,000 -550 Level Cleveland Center
Fri 01:51:57 PM 42.1736 -83.2225 360° North 259 298 10,900 -1,250 Descending Cleveland Center
Fri 01:52:57 PM 42.2392 -83.1803 25° Northeast 249 287 9,500 -1,313 Descending Cleveland Center
Fri 01:54:05 PM 42.3219 -83.1050 34° Northeast 276 318 8,100 -672 Descending Cleveland Center
Fri 01:55:11 PM 42.3900 -83.0431 34° Northeast 275 316 8,000 -331 Descending Cleveland Center
Fri 01:56:12 PM 42.4528 -83.0428 360° North 196 226 7,400 -1,082 Descending Cleveland Center
Fri 01:57:13 PM 42.4681 -83.1025 289° West 165 190 5,800 -1,116 Descending Cleveland Center
Fri 01:58:21 PM 42.4439 -83.1633 242° Southwest 161 185 5,000 -410 Descending Cleveland Center
Fri 01:59:10 PM 42.4139 -83.1903 214° Southwest 166 191 5,000 -327 Level Cleveland Center
Fri 02:00:11 PM 42.3758 -83.2225 212° Southwest 168 193 4,400 -750 Descending Cleveland Center
Fri 02:01:18 PM 42.3333 -83.2544 209° Southwest 153 176 3,400 -896 Descending Cleveland Center

Login

Don't have an account? Register now (free) for customized features, flight alerts, and more!